Barnesville, Ohio
Current Conditions -  °F | °C
As of 3:53 AM on Monday 24 Nov 2014 (Local Time) from KHLG Reporting Station
Light Rain Light Rain  
Wind Chill: 61°   Ceiling: 3600
Heat Index: 61°   Visibility: 10mi
Dew Point: 51°   Wind: 16mph
Humidity: 70%   Direction: 210°SSW
Pressure: 29.39"   Gusts: 32mph
Location:  39.99°N, 81.18°W
Report Text: KHLG 240853Z AUTO 21014G28KT 10SM -RA BKN036 OVC046 16/11 A2939 RMK AO2 PK WND 20030/0817 RAB10 SLP948 P0000 60000 T01610106 55011
Loading
Personal Weather Stations






























Interactive Weather Map New forecast layout! Learn more

10-Day Weather Forecast

Advertisements
Track Severe Weather on mobile